sensor_id;sensor_type;location;lat;lon;timestamp;P1;durP1;ratioP1;P2;durP2;ratioP2
48263;SDS011;34086;51.076;13.722;2023-05-07T00:00:56;26.20;;;18.83;;
48263;SDS011;34086;51.076;13.722;2023-05-07T00:01:59;26.17;;;19.02;;
48263;SDS011;34086;51.076;13.722;2023-05-07T00:03:01;27.13;;;19.05;;
48263;SDS011;34086;51.076;13.722;2023-05-07T00:04:01;26.88;;;18.77;;
48263;SDS011;34086;51.076;13.722;2023-05-07T00:05:03;25.65;;;17.90;;
48263;SDS011;34086;51.076;13.722;2023-05-07T00:06:04;25.10;;;17.60;;
48263;SDS011;34086;51.076;13.722;2023-05-07T00:07:05;28.55;;;20.00;;
48263;SDS011;34086;51.076;13.722;2023-05-07T00:08:05;28.45;;;18.42;;
48263;SDS011;34086;51.076;13.722;2023-05-07T00:09:06;27.63;;;18.65;;
48263;SDS011;34086;51.076;13.722;2023-05-07T00:10:07;28.13;;;19.95;;
48263;SDS011;34086;51.076;13.722;2023-05-07T00:11:08;30.40;;;20.88;;
48263;SDS011;34086;51.076;13.722;2023-05-07T00:12:08;30.42;;;20.20;;
48263;SDS011;34086;51.076;13.722;2023-05-07T00:13:09;28.75;;;20.17;;
48263;SDS011;34086;51.076;13.722;2023-05-07T00:14:09;28.65;;;19.73;;
48263;SDS011;34086;51.076;13.722;2023-05-07T00:15:10;30.05;;;20.17;;
48263;SDS011;34086;51.076;13.722;2023-05-07T00:16:10;30.50;;;19.83;;
48263;SDS011;34086;51.076;13.722;2023-05-07T00:17:11;30.58;;;20.45;;
48263;SDS011;34086;51.076;13.722;2023-05-07T00:18:11;29.90;;;22.23;;
48263;SDS011;34086;51.076;13.722;2023-05-07T00:19:12;34.92;;;24.23;;
48263;SDS011;34086;51.076;13.722;2023-05-07T00:20:13;33.10;;;23.60;;
48263;SDS011;34086;51.076;13.722;2023-05-07T00:21:13;34.28;;;23.48;;
48263;SDS011;34086;51.076;13.722;2023-05-07T00:22:14;35.00;;;24.90;;
48263;SDS011;34086;51.076;13.722;2023-05-07T00:23:15;33.15;;;22.85;;
48263;SDS011;34086;51.076;13.722;2023-05-07T00:24:15;33.47;;;23.67;;
48263;SDS011;34086;51.076;13.722;2023-05-07T00:25:16;31.67;;;23.60;;
48263;SDS011;34086;51.076;13.722;2023-05-07T00:26:19;31.95;;;22.60;;
48263;SDS011;34086;51.076;13.722;2023-05-07T00:27:22;32.95;;;23.67;;
48263;SDS011;34086;51.076;13.722;2023-05-07T00:28:22;33.35;;;23.85;;
48263;SDS011;34086;51.076;13.722;2023-05-07T00:29:23;35.10;;;25.20;;
48263;SDS011;34086;51.076;13.722;2023-05-07T00:30:24;35.10;;;25.42;;
48263;SDS011;34086;51.076;13.722;2023-05-07T00:31:24;36.75;;;25.58;;
48263;SDS011;34086;51.076;13.722;2023-05-07T00:32:25;33.55;;;24.33;;
48263;SDS011;34086;51.076;13.722;2023-05-07T00:33:25;35.58;;;24.80;;
48263;SDS011;34086;51.076;13.722;2023-05-07T00:34:26;33.97;;;24.75;;
48263;SDS011;34086;51.076;13.722;2023-05-07T00:35:28;33.78;;;24.70;;
48263;SDS011;34086;51.076;13.722;2023-05-07T00:36:29;35.47;;;25.10;;
48263;SDS011;34086;51.076;13.722;2023-05-07T00:37:30;35.75;;;25.05;;
48263;SDS011;34086;51.076;13.722;2023-05-07T00:38:31;34.00;;;24.02;;
48263;SDS011;34086;51.076;13.722;2023-05-07T00:39:32;36.58;;;24.75;;
48263;SDS011;34086;51.076;13.722;2023-05-07T00:40:33;31.17;;;23.42;;
48263;SDS011;34086;51.076;13.722;2023-05-07T00:41:33;32.35;;;24.13;;
48263;SDS011;34086;51.076;13.722;2023-05-07T00:42:34;33.03;;;24.33;;
48263;SDS011;34086;51.076;13.722;2023-05-07T00:43:35;33.30;;;24.23;;
48263;SDS011;34086;51.076;13.722;2023-05-07T00:44:35;33.15;;;23.63;;
48263;SDS011;34086;51.076;13.722;2023-05-07T00:45:36;32.78;;;23.58;;
48263;SDS011;34086;51.076;13.722;2023-05-07T00:46:37;33.45;;;24.30;;
48263;SDS011;34086;51.076;13.722;2023-05-07T00:47:38;32.50;;;23.73;;
48263;SDS011;34086;51.076;13.722;2023-05-07T00:48:39;31.45;;;23.08;;
48263;SDS011;34086;51.076;13.722;2023-05-07T00:49:44;31.17;;;23.02;;
48263;SDS011;34086;51.076;13.722;2023-05-07T00:50:45;34.20;;;24.33;;
48263;SDS011;34086;51.076;13.722;2023-05-07T00:51:47;30.77;;;22.77;;
48263;SDS011;34086;51.076;13.722;2023-05-07T00:52:47;30.40;;;22.15;;
48263;SDS011;34086;51.076;13.722;2023-05-07T00:53:48;31.35;;;23.48;;
48263;SDS011;34086;51.076;13.722;2023-05-07T00:54:49;30.92;;;23.38;;
48263;SDS011;34086;51.076;13.722;2023-05-07T00:55:50;31.80;;;24.00;;
48263;SDS011;34086;51.076;13.722;2023-05-07T00:56:50;34.53;;;24.95;;
48263;SDS011;34086;51.076;13.722;2023-05-07T00:57:51;32.58;;;23.95;;
48263;SDS011;34086;51.076;13.722;2023-05-07T00:58:52;31.80;;;23.52;;
48263;SDS011;34086;51.076;13.722;2023-05-07T00:59:53;28.73;;;22.20;;
48263;SDS011;34086;51.076;13.722;2023-05-07T01:00:53;30.33;;;22.60;;
48263;SDS011;34086;51.076;13.722;2023-05-07T01:01:54;30.20;;;22.30;;
48263;SDS011;34086;51.076;13.722;2023-05-07T01:02:55;29.73;;;22.27;;
48263;SDS011;34086;51.076;13.722;2023-05-07T01:03:55;32.45;;;24.13;;
48263;SDS011;34086;51.076;13.722;2023-05-07T01:04:56;29.75;;;23.02;;
48263;SDS011;34086;51.076;13.722;2023-05-07T01:05:57;28.70;;;21.30;;
48263;SDS011;34086;51.076;13.722;2023-05-07T01:06:59;29.88;;;22.88;;
48263;SDS011;34086;51.076;13.722;2023-05-07T01:08:01;32.33;;;23.55;;
48263;SDS011;34086;51.076;13.722;2023-05-07T01:09:04;28.25;;;22.05;;
48263;SDS011;34086;51.076;13.722;2023-05-07T01:10:06;29.92;;;22.73;;
48263;SDS011;34086;51.076;13.722;2023-05-07T01:11:07;34.13;;;24.95;;
48263;SDS011;34086;51.076;13.722;2023-05-07T01:12:08;31.27;;;23.23;;
48263;SDS011;34086;51.076;13.722;2023-05-07T01:13:10;30.40;;;22.98;;
48263;SDS011;34086;51.076;13.722;2023-05-07T01:14:12;30.13;;;22.75;;
48263;SDS011;34086;51.076;13.722;2023-05-07T01:15:12;30.48;;;22.63;;
48263;SDS011;34086;51.076;13.722;2023-05-07T01:16:14;29.90;;;23.08;;
48263;SDS011;34086;51.076;13.722;2023-05-07T01:17:15;30.13;;;22.63;;
48263;SDS011;34086;51.076;13.722;2023-05-07T01:18:17;27.90;;;21.58;;
48263;SDS011;34086;51.076;13.722;2023-05-07T01:19:18;27.52;;;20.73;;
48263;SDS011;34086;51.076;13.722;2023-05-07T01:20:19;28.65;;;20.85;;
48263;SDS011;34086;51.076;13.722;2023-05-07T01:21:24;27.50;;;21.48;;
48263;SDS011;34086;51.076;13.722;2023-05-07T01:22:31;28.45;;;20.88;;
48263;SDS011;34086;51.076;13.722;2023-05-07T01:23:36;28.65;;;20.90;;
48263;SDS011;34086;51.076;13.722;2023-05-07T01:24:38;27.13;;;21.25;;
48263;SDS011;34086;51.076;13.722;2023-05-07T01:25:40;29.15;;;21.60;;
48263;SDS011;34086;51.076;13.722;2023-05-07T01:26:43;30.27;;;22.83;;
48263;SDS011;34086;51.076;13.722;2023-05-07T01:27:45;31.00;;;23.25;;
48263;SDS011;34086;51.076;13.722;2023-05-07T01:28:45;29.52;;;22.02;;
48263;SDS011;34086;51.076;13.722;2023-05-07T01:29:46;31.23;;;22.77;;
48263;SDS011;34086;51.076;13.722;2023-05-07T01:30:49;30.27;;;21.75;;
48263;SDS011;34086;51.076;13.722;2023-05-07T01:31:56;27.40;;;20.95;;
48263;SDS011;34086;51.076;13.722;2023-05-07T01:34:02;30.00;;;22.15;;
48263;SDS011;34086;51.076;13.722;2023-05-07T01:35:05;27.73;;;21.02;;
48263;SDS011;34086;51.076;13.722;2023-05-07T01:36:09;28.55;;;21.58;;
48263;SDS011;34086;51.076;13.722;2023-05-07T01:37:12;30.17;;;23.10;;
48263;SDS011;34086;51.076;13.722;2023-05-07T01:38:13;31.23;;;23.70;;
48263;SDS011;34086;51.076;13.722;2023-05-07T01:39:14;28.15;;;22.05;;
48263;SDS011;34086;51.076;13.722;2023-05-07T01:40:16;29.38;;;21.75;;
48263;SDS011;34086;51.076;13.722;2023-05-07T01:41:17;27.40;;;21.30;;
48263;SDS011;34086;51.076;13.722;2023-05-07T01:42:19;26.75;;;20.90;;
48263;SDS011;34086;51.076;13.722;2023-05-07T01:43:19;29.23;;;21.70;;
48263;SDS011;34086;51.076;13.722;2023-05-07T01:44:20;30.05;;;22.15;;
48263;SDS011;34086;51.076;13.722;2023-05-07T01:45:22;28.33;;;21.45;;
48263;SDS011;34086;51.076;13.722;2023-05-07T01:46:23;28.85;;;21.38;;
48263;SDS011;34086;51.076;13.722;2023-05-07T01:47:26;26.80;;;20.63;;
48263;SDS011;34086;51.076;13.722;2023-05-07T01:48:26;28.05;;;20.40;;
48263;SDS011;34086;51.076;13.722;2023-05-07T01:49:28;27.27;;;21.52;;
48263;SDS011;34086;51.076;13.722;2023-05-07T01:50:29;29.85;;;22.55;;
48263;SDS011;34086;51.076;13.722;2023-05-07T01:51:31;28.83;;;22.23;;
48263;SDS011;34086;51.076;13.722;2023-05-07T01:52:33;29.38;;;22.40;;
48263;SDS011;34086;51.076;13.722;2023-05-07T01:53:38;26.80;;;20.65;;
48263;SDS011;34086;51.076;13.722;2023-05-07T01:54:39;28.30;;;21.80;;
48263;SDS011;34086;51.076;13.722;2023-05-07T01:55:40;27.10;;;21.15;;
48263;SDS011;34086;51.076;13.722;2023-05-07T01:56:41;31.10;;;23.20;;
48263;SDS011;34086;51.076;13.722;2023-05-07T01:57:42;28.83;;;21.27;;
48263;SDS011;34086;51.076;13.722;2023-05-07T01:58:44;26.98;;;21.63;;
48263;SDS011;34086;51.076;13.722;2023-05-07T01:59:46;29.40;;;21.08;;
48263;SDS011;34086;51.076;13.722;2023-05-07T02:00:46;28.42;;;22.00;;
48263;SDS011;34086;51.076;13.722;2023-05-07T02:01:47;26.67;;;20.85;;
48263;SDS011;34086;51.076;13.722;2023-05-07T02:02:47;26.60;;;20.40;;
48263;SDS011;34086;51.076;13.722;2023-05-07T02:04:00;26.45;;;20.25;;
48263;SDS011;34086;51.076;13.722;2023-05-07T02:05:03;26.60;;;20.48;;
48263;SDS011;34086;51.076;13.722;2023-05-07T02:06:04;25.80;;;19.67;;
48263;SDS011;34086;51.076;13.722;2023-05-07T02:07:11;26.42;;;20.30;;
48263;SDS011;34086;51.076;13.722;2023-05-07T02:08:12;27.95;;;21.52;;
48263;SDS011;34086;51.076;13.722;2023-05-07T02:09:13;30.63;;;22.80;;
48263;SDS011;34086;51.076;13.722;2023-05-07T02:10:16;29.23;;;22.40;;
48263;SDS011;34086;51.076;13.722;2023-05-07T02:11:16;28.88;;;21.90;;
48263;SDS011;34086;51.076;13.722;2023-05-07T02:12:17;26.75;;;20.98;;
48263;SDS011;34086;51.076;13.722;2023-05-07T02:13:18;25.75;;;20.55;;
48263;SDS011;34086;51.076;13.722;2023-05-07T02:14:19;26.60;;;21.00;;
48263;SDS011;34086;51.076;13.722;2023-05-07T02:15:20;28.05;;;21.23;;
48263;SDS011;34086;51.076;13.722;2023-05-07T02:16:21;26.00;;;20.45;;
48263;SDS011;34086;51.076;13.722;2023-05-07T02:17:23;27.33;;;20.63;;
48263;SDS011;34086;51.076;13.722;2023-05-07T02:18:24;29.30;;;21.48;;
48263;SDS011;34086;51.076;13.722;2023-05-07T02:19:25;29.45;;;21.92;;
48263;SDS011;34086;51.076;13.722;2023-05-07T02:20:25;27.52;;;20.83;;
48263;SDS011;34086;51.076;13.722;2023-05-07T02:21:26;25.98;;;19.75;;
48263;SDS011;34086;51.076;13.722;2023-05-07T02:22:27;27.48;;;20.63;;
48263;SDS011;34086;51.076;13.722;2023-05-07T02:23:27;24.13;;;19.02;;
48263;SDS011;34086;51.076;13.722;2023-05-07T02:24:28;25.10;;;19.08;;
48263;SDS011;34086;51.076;13.722;2023-05-07T02:25:30;28.80;;;19.60;;
48263;SDS011;34086;51.076;13.722;2023-05-07T02:26:30;27.85;;;21.02;;
48263;SDS011;34086;51.076;13.722;2023-05-07T02:27:31;27.70;;;20.70;;
48263;SDS011;34086;51.076;13.722;2023-05-07T02:28:32;25.45;;;18.77;;
48263;SDS011;34086;51.076;13.722;2023-05-07T02:29:36;23.33;;;17.77;;
48263;SDS011;34086;51.076;13.722;2023-05-07T02:30:37;25.75;;;19.38;;
48263;SDS011;34086;51.076;13.722;2023-05-07T02:31:38;26.92;;;19.23;;
48263;SDS011;34086;51.076;13.722;2023-05-07T02:32:39;24.50;;;18.77;;
48263;SDS011;34086;51.076;13.722;2023-05-07T02:33:39;24.45;;;18.23;;
48263;SDS011;34086;51.076;13.722;2023-05-07T02:34:42;24.35;;;18.60;;
48263;SDS011;34086;51.076;13.722;2023-05-07T02:35:44;24.33;;;17.83;;
48263;SDS011;34086;51.076;13.722;2023-05-07T02:36:46;29.25;;;20.85;;
48263;SDS011;34086;51.076;13.722;2023-05-07T02:37:50;24.45;;;18.35;;
48263;SDS011;34086;51.076;13.722;2023-05-07T02:38:50;22.60;;;17.60;;
48263;SDS011;34086;51.076;13.722;2023-05-07T02:39:51;23.70;;;17.48;;
48263;SDS011;34086;51.076;13.722;2023-05-07T02:40:51;23.40;;;17.90;;
48263;SDS011;34086;51.076;13.722;2023-05-07T02:41:52;23.92;;;18.30;;
48263;SDS011;34086;51.076;13.722;2023-05-07T02:42:52;25.38;;;18.55;;
48263;SDS011;34086;51.076;13.722;2023-05-07T02:43:53;23.52;;;18.42;;
48263;SDS011;34086;51.076;13.722;2023-05-07T02:44:54;25.35;;;18.92;;
48263;SDS011;34086;51.076;13.722;2023-05-07T02:46:07;24.63;;;18.45;;
48263;SDS011;34086;51.076;13.722;2023-05-07T02:47:13;23.27;;;17.05;;
48263;SDS011;34086;51.076;13.722;2023-05-07T02:48:15;24.13;;;17.63;;
48263;SDS011;34086;51.076;13.722;2023-05-07T02:49:16;22.70;;;16.75;;
48263;SDS011;34086;51.076;13.722;2023-05-07T02:50:17;23.15;;;17.67;;
48263;SDS011;34086;51.076;13.722;2023-05-07T02:51:19;23.33;;;16.90;;
48263;SDS011;34086;51.076;13.722;2023-05-07T02:52:21;23.73;;;17.83;;
48263;SDS011;34086;51.076;13.722;2023-05-07T02:53:22;22.42;;;17.17;;
48263;SDS011;34086;51.076;13.722;2023-05-07T02:54:25;24.17;;;18.27;;
48263;SDS011;34086;51.076;13.722;2023-05-07T02:55:26;25.65;;;18.77;;
48263;SDS011;34086;51.076;13.722;2023-05-07T02:56:26;30.70;;;21.85;;
48263;SDS011;34086;51.076;13.722;2023-05-07T02:57:27;26.58;;;19.58;;
48263;SDS011;34086;51.076;13.722;2023-05-07T02:58:28;24.17;;;18.30;;
48263;SDS011;34086;51.076;13.722;2023-05-07T02:59:29;23.27;;;17.27;;
48263;SDS011;34086;51.076;13.722;2023-05-07T03:00:30;22.42;;;16.88;;
48263;SDS011;34086;51.076;13.722;2023-05-07T03:01:42;21.75;;;16.85;;
48263;SDS011;34086;51.076;13.722;2023-05-07T03:02:45;21.83;;;16.65;;
48263;SDS011;34086;51.076;13.722;2023-05-07T03:03:46;22.75;;;17.42;;
48263;SDS011;34086;51.076;13.722;2023-05-07T03:04:47;20.33;;;16.17;;
48263;SDS011;34086;51.076;13.722;2023-05-07T03:05:47;20.05;;;16.02;;
48263;SDS011;34086;51.076;13.722;2023-05-07T03:06:48;19.73;;;15.70;;
48263;SDS011;34086;51.076;13.722;2023-05-07T03:07:49;20.20;;;16.40;;
48263;SDS011;34086;51.076;13.722;2023-05-07T03:08:49;21.92;;;16.73;;
48263;SDS011;34086;51.076;13.722;2023-05-07T03:09:50;21.58;;;16.40;;
48263;SDS011;34086;51.076;13.722;2023-05-07T03:10:51;22.60;;;17.15;;
48263;SDS011;34086;51.076;13.722;2023-05-07T03:11:51;22.40;;;16.83;;
48263;SDS011;34086;51.076;13.722;2023-05-07T03:12:52;20.27;;;16.08;;
48263;SDS011;34086;51.076;13.722;2023-05-07T03:13:53;20.65;;;16.17;;
48263;SDS011;34086;51.076;13.722;2023-05-07T03:14:55;19.55;;;15.93;;
48263;SDS011;34086;51.076;13.722;2023-05-07T03:15:55;21.13;;;16.50;;
48263;SDS011;34086;51.076;13.722;2023-05-07T03:16:56;22.85;;;16.70;;
48263;SDS011;34086;51.076;13.722;2023-05-07T03:17:56;22.65;;;17.08;;
48263;SDS011;34086;51.076;13.722;2023-05-07T03:18:57;22.52;;;16.90;;
48263;SDS011;34086;51.076;13.722;2023-05-07T03:19:58;22.23;;;16.58;;
48263;SDS011;34086;51.076;13.722;2023-05-07T03:20:59;21.55;;;16.42;;
48263;SDS011;34086;51.076;13.722;2023-05-07T03:21:59;23.80;;;18.30;;
48263;SDS011;34086;51.076;13.722;2023-05-07T03:23:00;23.05;;;17.65;;
48263;SDS011;34086;51.076;13.722;2023-05-07T03:24:01;22.67;;;17.65;;
48263;SDS011;34086;51.076;13.722;2023-05-07T03:25:01;24.73;;;18.13;;
48263;SDS011;34086;51.076;13.722;2023-05-07T03:26:02;24.88;;;18.02;;
48263;SDS011;34086;51.076;13.722;2023-05-07T03:27:02;22.60;;;16.98;;
48263;SDS011;34086;51.076;13.722;2023-05-07T03:28:03;23.17;;;17.50;;
48263;SDS011;34086;51.076;13.722;2023-05-07T03:29:12;22.65;;;16.75;;
48263;SDS011;34086;51.076;13.722;2023-05-07T03:30:13;21.70;;;16.83;;
48263;SDS011;34086;51.076;13.722;2023-05-07T03:31:13;21.67;;;17.02;;
48263;SDS011;34086;51.076;13.722;2023-05-07T03:32:14;21.67;;;17.33;;
48263;SDS011;34086;51.076;13.722;2023-05-07T03:33:15;21.50;;;16.45;;
48263;SDS011;34086;51.076;13.722;2023-05-07T03:34:15;20.85;;;16.08;;
48263;SDS011;34086;51.076;13.722;2023-05-07T03:35:21;20.00;;;15.45;;
48263;SDS011;34086;51.076;13.722;2023-05-07T03:36:22;19.92;;;15.50;;
48263;SDS011;34086;51.076;13.722;2023-05-07T03:37:23;21.55;;;16.40;;
48263;SDS011;34086;51.076;13.722;2023-05-07T03:38:24;19.80;;;15.30;;
48263;SDS011;34086;51.076;13.722;2023-05-07T03:39:25;21.95;;;16.15;;
48263;SDS011;34086;51.076;13.722;2023-05-07T03:40:26;21.23;;;15.98;;
48263;SDS011;34086;51.076;13.722;2023-05-07T03:41:28;24.35;;;17.10;;
48263;SDS011;34086;51.076;13.722;2023-05-07T03:42:29;22.48;;;16.70;;
48263;SDS011;34086;51.076;13.722;2023-05-07T03:43:30;21.73;;;16.13;;
48263;SDS011;34086;51.076;13.722;2023-05-07T03:44:37;20.40;;;15.68;;
48263;SDS011;34086;51.076;13.722;2023-05-07T03:45:37;20.40;;;16.02;;
48263;SDS011;34086;51.076;13.722;2023-05-07T03:46:52;21.90;;;16.08;;
48263;SDS011;34086;51.076;13.722;2023-05-07T03:47:52;21.85;;;16.38;;
48263;SDS011;34086;51.076;13.722;2023-05-07T03:48:54;20.15;;;15.43;;
48263;SDS011;34086;51.076;13.722;2023-05-07T03:49:55;21.38;;;16.58;;
48263;SDS011;34086;51.076;13.722;2023-05-07T03:50:58;19.70;;;15.60;;
48263;SDS011;34086;51.076;13.722;2023-05-07T03:52:02;23.83;;;17.17;;
48263;SDS011;34086;51.076;13.722;2023-05-07T03:53:05;23.10;;;16.52;;
48263;SDS011;34086;51.076;13.722;2023-05-07T03:54:08;23.45;;;16.95;;
48263;SDS011;34086;51.076;13.722;2023-05-07T03:55:15;23.25;;;16.73;;
48263;SDS011;34086;51.076;13.722;2023-05-07T03:56:22;24.00;;;17.60;;
48263;SDS011;34086;51.076;13.722;2023-05-07T03:57:27;25.42;;;18.25;;
48263;SDS011;34086;51.076;13.722;2023-05-07T03:58:28;23.30;;;16.95;;
48263;SDS011;34086;51.076;13.722;2023-05-07T03:59:31;21.67;;;15.68;;
48263;SDS011;34086;51.076;13.722;2023-05-07T04:00:32;20.50;;;15.85;;
48263;SDS011;34086;51.076;13.722;2023-05-07T04:01:42;22.02;;;15.93;;
48263;SDS011;34086;51.076;13.722;2023-05-07T04:02:49;24.23;;;16.52;;
48263;SDS011;34086;51.076;13.722;2023-05-07T04:03:56;23.48;;;16.70;;
48263;SDS011;34086;51.076;13.722;2023-05-07T04:04:57;25.20;;;17.67;;
48263;SDS011;34086;51.076;13.722;2023-05-07T04:05:58;25.13;;;17.38;;
48263;SDS011;34086;51.076;13.722;2023-05-07T04:06:59;28.38;;;18.60;;
48263;SDS011;34086;51.076;13.722;2023-05-07T04:08:00;26.42;;;18.65;;
48263;SDS011;34086;51.076;13.722;2023-05-07T04:09:09;25.05;;;17.70;;
48263;SDS011;34086;51.076;13.722;2023-05-07T04:10:12;28.27;;;18.60;;
48263;SDS011;34086;51.076;13.722;2023-05-07T04:11:15;27.85;;;18.15;;
48263;SDS011;34086;51.076;13.722;2023-05-07T04:12:15;27.90;;;18.95;;
48263;SDS011;34086;51.076;13.722;2023-05-07T04:13:16;29.17;;;18.58;;
48263;SDS011;34086;51.076;13.722;2023-05-07T04:14:17;28.30;;;18.90;;
48263;SDS011;34086;51.076;13.722;2023-05-07T04:15:17;26.05;;;18.15;;
48263;SDS011;34086;51.076;13.722;2023-05-07T04:16:18;27.25;;;18.05;;
48263;SDS011;34086;51.076;13.722;2023-05-07T04:17:19;27.52;;;18.88;;
48263;SDS011;34086;51.076;13.722;2023-05-07T04:18:19;27.08;;;18.35;;
48263;SDS011;34086;51.076;13.722;2023-05-07T04:19:21;26.98;;;18.27;;
48263;SDS011;34086;51.076;13.722;2023-05-07T04:20:25;26.60;;;17.63;;
48263;SDS011;34086;51.076;13.722;2023-05-07T04:21:32;26.67;;;17.90;;
48263;SDS011;34086;51.076;13.722;2023-05-07T04:22:33;26.35;;;18.25;;
48263;SDS011;34086;51.076;13.722;2023-05-07T04:23:34;26.70;;;17.92;;
48263;SDS011;34086;51.076;13.722;2023-05-07T04:24:37;25.85;;;18.27;;
48263;SDS011;34086;51.076;13.722;2023-05-07T04:25:38;28.20;;;18.63;;
48263;SDS011;34086;51.076;13.722;2023-05-07T04:26:44;26.45;;;18.17;;
48263;SDS011;34086;51.076;13.722;2023-05-07T04:27:45;26.38;;;18.55;;
48263;SDS011;34086;51.076;13.722;2023-05-07T04:28:47;27.27;;;18.13;;
48263;SDS011;34086;51.076;13.722;2023-05-07T04:29:49;28.77;;;17.92;;
48263;SDS011;34086;51.076;13.722;2023-05-07T04:30:51;28.15;;;18.55;;
48263;SDS011;34086;51.076;13.722;2023-05-07T04:31:52;33.53;;;22.65;;
48263;SDS011;34086;51.076;13.722;2023-05-07T04:32:53;32.97;;;22.17;;
48263;SDS011;34086;51.076;13.722;2023-05-07T04:33:55;33.53;;;22.27;;
48263;SDS011;34086;51.076;13.722;2023-05-07T04:34:56;26.50;;;18.40;;
48263;SDS011;34086;51.076;13.722;2023-05-07T04:35:57;26.88;;;18.45;;
48263;SDS011;34086;51.076;13.722;2023-05-07T04:37:03;28.52;;;19.25;;
48263;SDS011;34086;51.076;13.722;2023-05-07T04:38:04;27.55;;;18.95;;
48263;SDS011;34086;51.076;13.722;2023-05-07T04:39:04;25.25;;;17.73;;
48263;SDS011;34086;51.076;13.722;2023-05-07T04:40:05;26.27;;;18.27;;
48263;SDS011;34086;51.076;13.722;2023-05-07T04:41:08;26.42;;;17.65;;
48263;SDS011;34086;51.076;13.722;2023-05-07T04:42:16;28.42;;;18.75;;
48263;SDS011;34086;51.076;13.722;2023-05-07T04:43:17;29.05;;;19.10;;
48263;SDS011;34086;51.076;13.722;2023-05-07T04:44:23;26.17;;;17.98;;
48263;SDS011;34086;51.076;13.722;2023-05-07T04:45:24;26.17;;;17.85;;
48263;SDS011;34086;51.076;13.722;2023-05-07T04:46:28;27.23;;;18.73;;
48263;SDS011;34086;51.076;13.722;2023-05-07T04:47:31;26.98;;;18.35;;
48263;SDS011;34086;51.076;13.722;2023-05-07T04:48:32;28.15;;;18.77;;
48263;SDS011;34086;51.076;13.722;2023-05-07T04:49:36;27.88;;;19.00;;
48263;SDS011;34086;51.076;13.722;2023-05-07T04:50:38;26.55;;;18.02;;
48263;SDS011;34086;51.076;13.722;2023-05-07T04:51:39;27.45;;;18.27;;
48263;SDS011;34086;51.076;13.722;2023-05-07T04:52:43;27.05;;;18.70;;
48263;SDS011;34086;51.076;13.722;2023-05-07T04:53:44;26.60;;;18.13;;
48263;SDS011;34086;51.076;13.722;2023-05-07T04:54:45;26.55;;;18.35;;
48263;SDS011;34086;51.076;13.722;2023-05-07T04:55:46;25.58;;;17.75;;
48263;SDS011;34086;51.076;13.722;2023-05-07T04:56:46;27.25;;;17.85;;
48263;SDS011;34086;51.076;13.722;2023-05-07T04:57:47;27.48;;;18.77;;
48263;SDS011;34086;51.076;13.722;2023-05-07T04:58:49;28.13;;;18.77;;
48263;SDS011;34086;51.076;13.722;2023-05-07T04:59:53;25.40;;;18.65;;
48263;SDS011;34086;51.076;13.722;2023-05-07T05:00:54;25.65;;;18.30;;
48263;SDS011;34086;51.076;13.722;2023-05-07T05:01:56;24.75;;;17.48;;
48263;SDS011;34086;51.076;13.722;2023-05-07T05:02:57;24.77;;;17.63;;
48263;SDS011;34086;51.076;13.722;2023-05-07T05:03:58;25.90;;;18.27;;
48263;SDS011;34086;51.076;13.722;2023-05-07T05:05:00;25.73;;;18.75;;
48263;SDS011;34086;51.076;13.722;2023-05-07T05:06:04;28.80;;;19.25;;
48263;SDS011;34086;51.076;13.722;2023-05-07T05:07:07;27.50;;;19.20;;
48263;SDS011;34086;51.076;13.722;2023-05-07T05:08:08;26.65;;;18.67;;
48263;SDS011;34086;51.076;13.722;2023-05-07T05:09:11;26.58;;;18.10;;
48263;SDS011;34086;51.076;13.722;2023-05-07T05:10:14;24.15;;;17.63;;
48263;SDS011;34086;51.076;13.722;2023-05-07T05:11:17;25.33;;;17.70;;
48263;SDS011;34086;51.076;13.722;2023-05-07T05:12:18;26.02;;;17.45;;
48263;SDS011;34086;51.076;13.722;2023-05-07T05:13:18;25.30;;;17.55;;
48263;SDS011;34086;51.076;13.722;2023-05-07T05:14:19;23.73;;;16.77;;
48263;SDS011;34086;51.076;13.722;2023-05-07T05:15:20;26.02;;;18.35;;
48263;SDS011;34086;51.076;13.722;2023-05-07T05:16:20;25.67;;;17.67;;
48263;SDS011;34086;51.076;13.722;2023-05-07T05:17:22;22.75;;;16.23;;
48263;SDS011;34086;51.076;13.722;2023-05-07T05:18:23;25.13;;;17.33;;
48263;SDS011;34086;51.076;13.722;2023-05-07T05:19:23;23.27;;;16.83;;
48263;SDS011;34086;51.076;13.722;2023-05-07T05:20:24;24.10;;;16.77;;
48263;SDS011;34086;51.076;13.722;2023-05-07T05:21:24;22.48;;;16.65;;
48263;SDS011;34086;51.076;13.722;2023-05-07T05:22:29;23.30;;;16.45;;
48263;SDS011;34086;51.076;13.722;2023-05-07T05:23:32;23.13;;;16.33;;
48263;SDS011;34086;51.076;13.722;2023-05-07T05:24:33;22.13;;;16.55;;
48263;SDS011;34086;51.076;13.722;2023-05-07T05:25:35;23.23;;;15.80;;
48263;SDS011;34086;51.076;13.722;2023-05-07T05:26:35;21.27;;;15.40;;
48263;SDS011;34086;51.076;13.722;2023-05-07T05:27:36;21.73;;;15.55;;
48263;SDS011;34086;51.076;13.722;2023-05-07T05:28:38;22.13;;;15.93;;
48263;SDS011;34086;51.076;13.722;2023-05-07T05:29:39;21.00;;;15.25;;
48263;SDS011;34086;51.076;13.722;2023-05-07T05:30:40;20.98;;;15.13;;
48263;SDS011;34086;51.076;13.722;2023-05-07T05:31:42;21.27;;;15.45;;
48263;SDS011;34086;51.076;13.722;2023-05-07T05:32:42;21.08;;;15.32;;
48263;SDS011;34086;51.076;13.722;2023-05-07T05:33:43;22.73;;;15.68;;
48263;SDS011;34086;51.076;13.722;2023-05-07T05:34:44;21.88;;;16.25;;
48263;SDS011;34086;51.076;13.722;2023-05-07T05:35:45;21.45;;;15.20;;
48263;SDS011;34086;51.076;13.722;2023-05-07T05:36:46;21.33;;;15.98;;
48263;SDS011;34086;51.076;13.722;2023-05-07T05:37:48;22.40;;;16.10;;
48263;SDS011;34086;51.076;13.722;2023-05-07T05:38:50;21.75;;;16.33;;
48263;SDS011;34086;51.076;13.722;2023-05-07T05:39:52;23.10;;;16.02;;
48263;SDS011;34086;51.076;13.722;2023-05-07T05:40:54;21.52;;;15.57;;
48263;SDS011;34086;51.076;13.722;2023-05-07T05:41:55;19.70;;;14.50;;
48263;SDS011;34086;51.076;13.722;2023-05-07T05:42:56;22.67;;;15.35;;
48263;SDS011;34086;51.076;13.722;2023-05-07T05:43:57;22.60;;;15.63;;
48263;SDS011;34086;51.076;13.722;2023-05-07T05:44:59;21.98;;;15.48;;
48263;SDS011;34086;51.076;13.722;2023-05-07T05:46:01;22.13;;;15.52;;
48263;SDS011;34086;51.076;13.722;2023-05-07T05:47:02;18.08;;;13.98;;
48263;SDS011;34086;51.076;13.722;2023-05-07T05:48:03;20.90;;;14.45;;
48263;SDS011;34086;51.076;13.722;2023-05-07T05:49:05;21.25;;;15.10;;
48263;SDS011;34086;51.076;13.722;2023-05-07T05:50:06;21.00;;;14.55;;
48263;SDS011;34086;51.076;13.722;2023-05-07T05:51:07;21.27;;;15.43;;
48263;SDS011;34086;51.076;13.722;2023-05-07T05:52:07;23.00;;;16.67;;
48263;SDS011;34086;51.076;13.722;2023-05-07T05:53:08;23.00;;;16.15;;
48263;SDS011;34086;51.076;13.722;2023-05-07T05:54:09;24.63;;;16.42;;
48263;SDS011;34086;51.076;13.722;2023-05-07T05:55:09;22.75;;;16.08;;
48263;SDS011;34086;51.076;13.722;2023-05-07T05:56:11;21.55;;;15.93;;
48263;SDS011;34086;51.076;13.722;2023-05-07T05:57:14;21.80;;;15.50;;